Create Tblcommutelog Verified Points Advance Search
| # | Trip ID | Id Commuter | Trip Date | Trip Num | Current Lat | Current Lng | Delta Distance | Current Time | Activity | Activity Confidence | Current Speed | |
|---|---|---|---|---|---|---|---|---|---|---|---|---|
| 73501 | 260122_778451_16430742_0709 | 778451 | (not set) | (not set) | 38.894678955886 | -77.016066539108 | 7.2415 | 2026-01-22 07:38:20 | on_bicycle | 100 | 0.68397006625122 | |
| 73502 | 260122_777261_16513230_0738 | 777261 | (not set) | (not set) | 39.000840267855 | -76.916893132096 | 0 | 2026-01-22 07:38:21 | unknown | 100 | 0 | |
| 73503 | 260122_776287_16511635_0701 | 776287 | (not set) | (not set) | 38.893883940688 | -77.028926106029 | 6.2509 | 2026-01-22 07:38:21 | still | 33 | -0.44703925898772 | |
| 73504 | 260122_776287_16511635_0701 | 776287 | (not set) | (not set) | 38.893883940688 | -77.028926106029 | 6.2509 | 2026-01-22 07:38:21 | still | 33 | -0.44703925898772 | |
| 73505 | 260122_776287_16511635_0701 | 776287 | (not set) | (not set) | 38.893883940688 | -77.028926106029 | 6.2509 | 2026-01-22 07:38:21 | still | 33 | -0.44703925898772 | |
| 73506 | 260122_777261_16513230_0738 | 777261 | (not set) | (not set) | 39.000840267855 | -76.916893132096 | 0 | 2026-01-22 07:38:21 | unknown | 100 | 0 | |
| 73507 | 260122_778451_16430742_0709 | 778451 | (not set) | (not set) | 38.894678955886 | -77.016066539108 | 7.2415 | 2026-01-22 07:38:20 | on_bicycle | 100 | 0.68397006625122 | |
| 73508 | 260122_772317_6438355_0729 | 772317 | (not set) | (not set) | 38.940901856355 | -77.058310543914 | 0.3017 | 2026-01-22 07:38:22 | on_bicycle | 100 | 2.2262555097589 | |
| 73509 | 260122_631037_6428227_0657 | 631037 | (not set) | (not set) | 39.070400498657 | -77.00338103538 | 22.1055 | 2026-01-22 07:38:22 | in_vehicle | 100 | 8.8737292909063 | |
| 73510 | 260122_631037_6428227_0657 | 631037 | (not set) | (not set) | 39.070400498657 | -77.00338103538 | 22.1055 | 2026-01-22 07:38:22 | in_vehicle | 100 | 8.8737292909063 | |
| 73511 | 260122_772317_6438355_0729 | 772317 | (not set) | (not set) | 38.940901856355 | -77.058310543914 | 0.3017 | 2026-01-22 07:38:22 | on_bicycle | 100 | 2.2262555097589 | |
| 73512 | 260122_772317_6438355_0729 | 772317 | (not set) | (not set) | 38.940901856355 | -77.058310543914 | 0.3017 | 2026-01-22 07:38:22 | on_bicycle | 100 | 2.2262555097589 | |
| 73513 | 260122_766012_6442693_0732 | 766012 | (not set) | (not set) | 38.733611548183 | -77.144674854592 | 2.338 | 2026-01-22 07:38:22 | in_vehicle | 100 | 11.596198378142 | |
| 73514 | 260122_788421_6438355_0654 | 788421 | (not set) | (not set) | 38.944470350542 | -77.06350336358 | 23.3561 | 2026-01-22 07:38:22 | in_vehicle | 100 | -0.44703925898772 | |
| 73515 | 260122_788421_6438355_0655 | 788421 | (not set) | (not set) | 38.944470350542 | -77.06350336358 | 23.3561 | 2026-01-22 07:38:22 | in_vehicle | 100 | -0.44703925898772 | |
| 73516 | 260122_781130_16450333_0730 | 781130 | (not set) | (not set) | 39.122763251374 | -76.812733612085 | 0.8912 | 2026-01-22 07:38:23 | unknown | 100 | 8.194229617245 | |
| 73517 | 260122_789883_16514514_0638 | 789883 | (not set) | (not set) | 39.019204883192 | -76.930454390985 | 13.3569 | 2026-01-22 07:38:23 | in_vehicle | 100 | 10.585889652829 | |
| 73518 | 260122_720669_16491788_0711 | 720669 | (not set) | (not set) | 38.820233993619 | -77.017078576303 | 13.9913 | 2026-01-22 07:38:24 | in_vehicle | 100 | 5.3689415004426 | |
| 73519 | 260122_764454_16507126_0702 | 764454 | (not set) | (not set) | 38.952833163347 | -77.362799976786 | 14.5332 | 2026-01-22 07:38:24 | in_vehicle | 100 | 12.610977496044 | |
| 73520 | 260122_764454_16507126_0702 | 764454 | (not set) | (not set) | 38.952833163347 | -77.362799976786 | 14.5332 | 2026-01-22 07:38:24 | in_vehicle | 100 | 12.610977496044 |